Time;durP1;ratioP1;P1;durP2;ratioP2;P2;SDS_P1;SDS_P2;PMS_P1;PMS_P2;Temp;Humidity;BMP_temperature;BMP_pressure;BME280_temperature;BME280_humidity;BME280_pressure;Samples;Min_cycle;Max_cycle;Signal;HPM_P1;HPM_P2
2021/08/13 00:00:33;;;;;;;10.55;9.45;;;;;;;;;;5039843;28;20028;-80
2021/08/13 00:02:59;;;;;;;10.07;8.95;;;;;;;;;;5063516;28;20025;-82
2021/08/13 00:05:25;;;;;;;10.68;9.57;;;;;;;;;;5077505;28;20021;-81
2021/08/13 00:07:51;;;;;;;9.77;8.77;;;;;;;;;;5080451;28;20447;-80
2021/08/13 00:10:17;;;;;;;9.73;8.73;;;;;;;;;;5078245;28;20029;-79
2021/08/13 00:12:43;;;;;;;10.15;8.88;;;;;;;;;;5076017;28;20029;-80
2021/08/13 00:15:09;;;;;;;10.15;9.10;;;;;;;;;;5058843;28;20029;-81
2021/08/13 00:17:36;;;;;;;10.10;9.10;;;;;;;;;;5043648;28;20021;-81
2021/08/13 00:20:02;;;;;;;10.25;9.18;;;;;;;;;;5045553;28;20353;-79
2021/08/13 00:22:28;;;;;;;9.77;8.88;;;;;;;;;;5067473;28;20032;-80
2021/08/13 00:24:54;;;;;;;9.90;8.90;;;;;;;;;;5062792;28;20025;-81
2021/08/13 00:27:20;;;;;;;9.63;8.30;;;;;;;;;;5072924;28;20029;-79
2021/08/13 00:29:46;;;;;;;9.73;8.55;;;;;;;;;;5077548;28;20039;-81
2021/08/13 00:32:12;;;;;;;9.68;8.57;;;;;;;;;;5059598;28;20469;-81
2021/08/13 00:34:38;;;;;;;9.07;8.18;;;;;;;;;;5061196;28;20033;-80
2021/08/13 00:37:05;;;;;;;9.82;8.85;;;;;;;;;;5061250;28;20020;-81
2021/08/13 00:39:31;;;;;;;11.50;8.95;;;;;;;;;;5060623;28;20046;-80
2021/08/13 00:41:57;;;;;;;9.23;8.25;;;;;;;;;;5079103;28;20027;-80
2021/08/13 00:44:24;;;;;;;10.05;9.02;;;;;;;;;;5082895;28;20084;-80
2021/08/13 00:46:50;;;;;;;8.88;8.07;;;;;;;;;;5068556;28;20028;-80
2021/08/13 00:49:16;;;;;;;11.43;9.00;;;;;;;;;;5095124;28;20054;-81
2021/08/13 00:51:44;;;;;;;9.48;8.50;;;;;;;;;;5093537;28;20036;-80
2021/08/13 00:54:10;;;;;;;9.93;9.00;;;;;;;;;;5053930;28;20105;-83
2021/08/13 00:56:36;;;;;;;9.13;8.23;;;;;;;;;;5068605;28;20025;-81
2021/08/13 00:59:04;;;;;;;9.68;8.75;;;;;;;;;;5051070;28;20021;-82
2021/08/13 01:01:30;;;;;;;9.82;8.68;;;;;;;;;;5067223;28;20207;-79
2021/08/13 01:03:57;;;;;;;9.23;8.32;;;;;;;;;;5047447;28;20025;-79
2021/08/13 01:06:23;;;;;;;9.32;8.32;;;;;;;;;;5078055;28;20025;-79
2021/08/13 01:08:49;;;;;;;8.73;7.93;;;;;;;;;;5077153;28;20432;-80
2021/08/13 01:11:18;;;;;;;8.27;7.47;;;;;;;;;;5076849;28;20025;-80
2021/08/13 01:13:54;;;;;;;8.38;7.57;;;;;;;;;;5076976;28;20031;-79
2021/08/13 01:16:21;;;;;;;8.63;7.75;;;;;;;;;;5058173;28;20032;-79
2021/08/13 01:18:54;;;;;;;8.75;7.93;;;;;;;;;;5077304;28;20027;-79
2021/08/13 01:21:29;;;;;;;9.73;8.73;;;;;;;;;;5076708;28;20020;-80
2021/08/13 01:24:09;;;;;;;9.20;8.15;;;;;;;;;;5069735;28;20041;-81
2021/08/13 01:26:39;;;;;;;11.82;8.25;;;;;;;;;;5067453;28;20024;-79
2021/08/13 01:29:19;;;;;;;10.18;9.13;;;;;;;;;;5072942;28;20024;-79
2021/08/13 01:31:51;;;;;;;9.48;8.48;;;;;;;;;;5079978;28;20404;-79
2021/08/13 01:34:18;;;;;;;9.38;8.30;;;;;;;;;;5079892;28;20469;-82
2021/08/13 01:36:46;;;;;;;9.15;8.25;;;;;;;;;;5063275;28;20050;-80
2021/08/13 01:39:12;;;;;;;9.32;8.40;;;;;;;;;;5080618;28;20033;-81
2021/08/13 01:41:39;;;;;;;9.35;7.88;;;;;;;;;;5058973;28;20025;-80
2021/08/13 01:44:09;;;;;;;9.02;8.05;;;;;;;;;;5057898;28;20359;-80
2021/08/13 01:46:36;;;;;;;8.32;7.63;;;;;;;;;;5043479;28;20033;-82
2021/08/13 01:49:02;;;;;;;8.65;7.85;;;;;;;;;;5040337;28;20087;-80
2021/08/13 01:51:29;;;;;;;8.63;7.82;;;;;;;;;;5039755;28;20068;-80
2021/08/13 01:53:56;;;;;;;9.25;8.35;;;;;;;;;;5039456;28;20055;-83
2021/08/13 01:56:22;;;;;;;7.68;6.97;;;;;;;;;;5056128;28;20482;-81
2021/08/13 01:58:49;;;;;;;9.25;8.02;;;;;;;;;;5056711;28;20104;-82
2021/08/13 02:01:16;;;;;;;7.78;6.97;;;;;;;;;;5051320;28;20049;-81
2021/08/13 02:03:42;;;;;;;7.63;6.93;;;;;;;;;;5039598;28;20057;-82
2021/08/13 02:06:08;;;;;;;8.20;7.38;;;;;;;;;;5040998;28;20033;-81
2021/08/13 02:08:35;;;;;;;9.93;7.03;;;;;;;;;;5040686;28;20029;-80
2021/08/13 02:11:02;;;;;;;9.27;8.00;;;;;;;;;;5040880;28;20474;-80
2021/08/13 02:13:28;;;;;;;7.40;6.60;;;;;;;;;;5041570;28;20026;-82
2021/08/13 02:15:58;;;;;;;9.43;7.90;;;;;;;;;;5040498;28;20033;-81
2021/08/13 02:18:25;;;;;;;8.50;7.63;;;;;;;;;;5040402;28;20067;-80
2021/08/13 02:20:56;;;;;;;8.77;7.88;;;;;;;;;;5040817;28;20462;-81
2021/08/13 02:23:22;;;;;;;8.60;7.68;;;;;;;;;;5040691;28;20033;-81
2021/08/13 02:25:49;;;;;;;8.95;7.63;;;;;;;;;;5043103;28;20398;-81
2021/08/13 02:28:15;;;;;;;8.98;8.07;;;;;;;;;;5040264;28;20030;-81
2021/08/13 02:30:41;;;;;;;9.20;8.30;;;;;;;;;;5040482;28;20029;-82
2021/08/13 02:33:07;;;;;;;9.50;8.60;;;;;;;;;;5040642;28;20021;-82
2021/08/13 02:35:34;;;;;;;8.88;8.00;;;;;;;;;;5040403;28;20030;-80
2021/08/13 02:38:15;;;;;;;9.60;8.68;;;;;;;;;;5039218;28;20030;-79
2021/08/13 02:40:48;;;;;;;8.85;8.05;;;;;;;;;;5038995;28;20033;-80
2021/08/13 02:43:36;;;;;;;8.25;7.43;;;;;;;;;;5041527;28;20075;-82
2021/08/13 02:46:03;;;;;;;7.97;7.22;;;;;;;;;;5061367;28;20017;-80
2021/08/13 02:48:29;;;;;;;8.15;7.35;;;;;;;;;;5078632;28;20315;-79
2021/08/13 02:50:56;;;;;;;7.93;7.13;;;;;;;;;;5079594;28;20100;-80
2021/08/13 02:53:23;;;;;;;8.43;7.50;;;;;;;;;;5079363;28;20032;-81
2021/08/13 02:55:52;;;;;;;8.98;8.05;;;;;;;;;;5079235;28;20040;-81
2021/08/13 02:58:22;;;;;;;9.38;7.55;;;;;;;;;;5068180;28;20035;-79
2021/08/13 03:00:49;;;;;;;9.05;8.15;;;;;;;;;;5061375;28;20025;-79
2021/08/13 03:03:16;;;;;;;8.20;7.40;;;;;;;;;;5038891;28;20025;-80
2021/08/13 03:05:43;;;;;;;12.07;8.27;;;;;;;;;;5039902;28;20028;-79
2021/08/13 03:08:10;;;;;;;8.90;8.00;;;;;;;;;;5057492;28;20025;-79
2021/08/13 03:10:38;;;;;;;8.38;7.57;;;;;;;;;;5057187;28;20080;-79
2021/08/13 03:13:06;;;;;;;8.88;7.65;;;;;;;;;;5056946;28;20022;-80
2021/08/13 03:15:32;;;;;;;8.80;8.00;;;;;;;;;;5058086;28;20025;-82
2021/08/13 03:17:58;;;;;;;7.97;6.93;;;;;;;;;;5068620;28;20032;-82
2021/08/13 03:20:24;;;;;;;8.15;7.35;;;;;;;;;;5060549;28;20057;-80
2021/08/13 03:22:50;;;;;;;8.35;7.40;;;;;;;;;;5079530;28;20347;-81
2021/08/13 03:25:17;;;;;;;7.10;6.40;;;;;;;;;;5061184;28;20021;-79
2021/08/13 03:27:43;;;;;;;8.00;6.90;;;;;;;;;;5050387;28;20079;-80
2021/08/13 03:30:16;;;;;;;7.60;6.90;;;;;;;;;;5050393;28;20498;-81
2021/08/13 03:32:42;;;;;;;7.93;7.13;;;;;;;;;;5079032;28;20028;-81
2021/08/13 03:35:09;;;;;;;7.43;6.72;;;;;;;;;;5059497;28;20052;-80
2021/08/13 03:37:35;;;;;;;7.63;6.63;;;;;;;;;;5057931;28;20028;-80
2021/08/13 03:40:03;;;;;;;7.68;6.93;;;;;;;;;;5059471;28;20033;-81
2021/08/13 03:42:29;;;;;;;8.13;7.32;;;;;;;;;;5058340;28;20025;-81
2021/08/13 03:44:55;;;;;;;7.10;6.40;;;;;;;;;;5059490;28;20063;-81
2021/08/13 03:47:21;;;;;;;6.70;6.00;;;;;;;;;;5040716;28;20059;-81
2021/08/13 03:49:47;;;;;;;8.07;7.25;;;;;;;;;;5060301;28;20119;-81
2021/08/13 03:52:13;;;;;;;8.27;6.88;;;;;;;;;;5078933;28;20028;-79
2021/08/13 03:54:39;;;;;;;10.68;7.93;;;;;;;;;;5078245;28;20032;-80
2021/08/13 03:57:05;;;;;;;8.93;7.53;;;;;;;;;;5077420;28;20084;-80
2021/08/13 03:59:31;;;;;;;8.85;7.63;;;;;;;;;;5066687;28;20039;-81
2021/08/13 04:01:57;;;;;;;7.93;6.85;;;;;;;;;;5059087;28;20029;-81
2021/08/13 04:04:23;;;;;;;8.63;6.85;;;;;;;;;;5040681;28;20067;-79
2021/08/13 04:06:49;;;;;;;7.18;6.47;;;;;;;;;;5057745;28;20036;-80
2021/08/13 04:09:15;;;;;;;7.50;6.70;;;;;;;;;;5046649;28;20037;-79
2021/08/13 04:11:41;;;;;;;6.97;6.38;;;;;;;;;;5078064;28;20033;-81
2021/08/13 04:14:07;;;;;;;7.25;6.55;;;;;;;;;;5077655;28;20133;-82
2021/08/13 04:16:34;;;;;;;8.45;6.95;;;;;;;;;;5077638;28;20440;-81
2021/08/13 04:19:00;;;;;;;6.63;6.03;;;;;;;;;;5076183;28;20051;-81
2021/08/13 04:21:26;;;;;;;7.10;6.38;;;;;;;;;;5039679;28;20047;-80
2021/08/13 04:23:52;;;;;;;6.18;5.68;;;;;;;;;;5057955;28;20409;-81
2021/08/13 04:26:18;;;;;;;7.07;6.38;;;;;;;;;;5057323;28;20078;-80
2021/08/13 04:28:44;;;;;;;6.35;5.70;;;;;;;;;;5060921;28;20056;-79
2021/08/13 04:31:10;;;;;;;6.60;6.00;;;;;;;;;;5057200;28;20033;-80
2021/08/13 04:33:36;;;;;;;6.38;5.78;;;;;;;;;;5058717;28;20033;-80
2021/08/13 04:36:02;;;;;;;5.13;4.68;;;;;;;;;;5040220;28;20024;-80
2021/08/13 04:38:28;;;;;;;7.00;6.30;;;;;;;;;;5063994;28;20021;-78
2021/08/13 04:40:54;;;;;;;8.40;5.72;;;;;;;;;;5074486;28;20029;-81
2021/08/13 04:43:20;;;;;;;6.75;6.10;;;;;;;;;;5068094;22;20132;-84
2021/08/13 04:45:46;;;;;;;6.82;6.10;;;;;;;;;;5050267;28;20028;-83
2021/08/13 04:48:12;;;;;;;7.30;6.57;;;;;;;;;;5028612;28;20140;-83
2021/08/13 04:50:38;;;;;;;8.02;6.07;;;;;;;;;;5042691;28;20025;-83
2021/08/13 04:53:04;;;;;;;8.13;7.32;;;;;;;;;;5042204;28;20025;-85
2021/08/13 04:55:30;;;;;;;7.18;6.47;;;;;;;;;;5043627;28;20022;-85
2021/08/13 04:57:56;;;;;;;7.20;6.50;;;;;;;;;;5034707;28;20025;-83
2021/08/13 05:00:23;;;;;;;7.25;6.43;;;;;;;;;;5036020;28;20040;-83
2021/08/13 05:02:49;;;;;;;6.72;6.03;;;;;;;;;;5041474;28;20021;-85
2021/08/13 05:05:15;;;;;;;6.40;5.80;;;;;;;;;;5048943;28;20037;-85
2021/08/13 05:07:41;;;;;;;7.47;6.75;;;;;;;;;;5047738;28;20409;-86
2021/08/13 05:10:16;;;;;;;10.98;7.07;;;;;;;;;;5045942;28;20059;-85
2021/08/13 05:12:50;;;;;;;9.00;7.53;;;;;;;;;;5046675;28;20048;-86
2021/08/13 05:15:33;;;;;;;8.98;7.30;;;;;;;;;;5044416;28;20060;-85
2021/08/13 05:18:24;;;;;;;8.80;7.30;;;;;;;;;;5040945;28;20030;-83
2021/08/13 05:21:29;;;;;;;10.07;8.07;;;;;;;;;;4974741;29;20023;-84
2021/08/13 05:23:55;;;;;;;8.52;7.65;;;;;;;;;;4972207;29;20073;-83
2021/08/13 05:26:22;;;;;;;8.02;7.22;;;;;;;;;;5028263;28;20037;-85
2021/08/13 05:28:48;;;;;;;8.45;7.00;;;;;;;;;;5044575;28;20159;-85
2021/08/13 05:31:14;;;;;;;8.05;7.13;;;;;;;;;;5045705;28;20033;-84
2021/08/13 05:33:40;;;;;;;8.88;7.40;;;;;;;;;;5045184;28;20029;-85
2021/08/13 05:36:06;;;;;;;7.97;7.18;;;;;;;;;;5045904;28;20060;-86
2021/08/13 05:38:32;;;;;;;8.00;6.70;;;;;;;;;;5048051;28;20021;-86
2021/08/13 05:40:58;;;;;;;8.15;7.25;;;;;;;;;;5037965;28;20077;-84
2021/08/13 05:43:24;;;;;;;7.43;6.70;;;;;;;;;;5047394;28;20032;-86
2021/08/13 05:45:50;;;;;;;7.95;6.82;;;;;;;;;;5065628;28;20016;-86
2021/08/13 05:48:17;;;;;;;7.35;6.65;;;;;;;;;;5044560;28;20024;-84
2021/08/13 05:50:43;;;;;;;9.40;6.63;;;;;;;;;;5045675;28;20106;-85
2021/08/13 05:53:09;;;;;;;7.90;7.15;;;;;;;;;;5047159;28;20052;-84
2021/08/13 05:55:35;;;;;;;7.38;6.68;;;;;;;;;;5048488;28;20041;-84
2021/08/13 05:58:01;;;;;;;8.25;7.45;;;;;;;;;;5047722;28;20025;-85
2021/08/13 06:00:27;;;;;;;7.63;6.93;;;;;;;;;;5046635;28;20029;-83
2021/08/13 06:02:54;;;;;;;11.18;7.57;;;;;;;;;;5064116;28;20040;-85
2021/08/13 06:05:20;;;;;;;9.10;7.25;;;;;;;;;;5045823;28;20028;-84
2021/08/13 06:07:46;;;;;;;8.02;7.30;;;;;;;;;;5047654;28;20112;-84
2021/08/13 06:10:12;;;;;;;8.60;7.00;;;;;;;;;;5046929;28;20025;-86
2021/08/13 06:12:41;;;;;;;9.10;5.88;;;;;;;;;;5047847;28;20121;-84
2021/08/13 06:15:07;;;;;;;12.60;5.38;;;;;;;;;;5064897;28;20032;-85
2021/08/13 06:17:33;;;;;;;14.30;4.95;;;;;;;;;;5047446;28;20029;-84
2021/08/13 06:19:59;;;;;;;6.45;4.85;;;;;;;;;;5048749;28;20409;-85
2021/08/13 06:22:25;;;;;;;7.60;4.70;;;;;;;;;;5044627;28;20028;-86
2021/08/13 06:24:51;;;;;;;6.35;5.07;;;;;;;;;;5046248;28;20028;-86
2021/08/13 06:27:17;;;;;;;5.72;4.50;;;;;;;;;;5069761;28;20029;-86
2021/08/13 06:29:43;;;;;;;9.15;6.43;;;;;;;;;;5052254;28;20037;-84
2021/08/13 06:32:09;;;;;;;6.22;4.55;;;;;;;;;;5048346;28;20067;-85
2021/08/13 06:34:35;;;;;;;6.93;4.90;;;;;;;;;;5064720;28;20029;-85
2021/08/13 06:37:01;;;;;;;10.55;5.38;;;;;;;;;;5046057;28;20029;-86
2021/08/13 06:39:27;;;;;;;5.85;4.68;;;;;;;;;;5045683;28;20040;-84
2021/08/13 06:41:53;;;;;;;8.98;4.25;;;;;;;;;;5046212;28;20040;-85
2021/08/13 06:44:19;;;;;;;6.47;5.03;;;;;;;;;;5066203;28;20032;-86
2021/08/13 06:46:45;;;;;;;6.60;4.30;;;;;;;;;;5063331;28;20037;-86
2021/08/13 06:49:11;;;;;;;8.82;5.28;;;;;;;;;;5046531;28;20092;-85
2021/08/13 06:51:37;;;;;;;8.30;5.38;;;;;;;;;;5065929;28;20032;-85
2021/08/13 06:54:04;;;;;;;6.10;4.35;;;;;;;;;;5073350;28;20021;-84
2021/08/13 06:56:30;;;;;;;5.60;5.05;;;;;;;;;;5076794;28;20032;-83
2021/08/13 06:58:56;;;;;;;7.25;4.32;;;;;;;;;;5045882;28;20021;-85
2021/08/13 07:01:22;;;;;;;6.00;4.50;;;;;;;;;;5044641;28;20025;-86
2021/08/13 07:03:48;;;;;;;6.78;5.13;;;;;;;;;;5044833;28;20055;-85
2021/08/13 07:06:15;;;;;;;6.38;4.68;;;;;;;;;;5075195;28;20035;-86
2021/08/13 07:08:41;;;;;;;5.47;4.60;;;;;;;;;;5045063;28;20029;-85
2021/08/13 07:11:07;;;;;;;7.75;5.22;;;;;;;;;;5044266;28;20029;-85
2021/08/13 07:13:33;;;;;;;6.55;5.20;;;;;;;;;;5064771;28;20115;-84
2021/08/13 07:16:00;;;;;;;6.82;4.70;;;;;;;;;;5062473;28;20044;-86
2021/08/13 07:18:26;;;;;;;5.53;4.57;;;;;;;;;;5061536;28;20359;-86
2021/08/13 07:20:52;;;;;;;6.30;5.18;;;;;;;;;;5063548;28;20468;-85
2021/08/13 07:23:19;;;;;;;5.43;4.47;;;;;;;;;;5047834;28;20021;-84
2021/08/13 07:25:45;;;;;;;6.68;4.97;;;;;;;;;;5045098;28;20100;-86
2021/08/13 07:28:11;;;;;;;6.22;5.55;;;;;;;;;;5064231;28;20016;-85
2021/08/13 07:30:37;;;;;;;7.18;5.57;;;;;;;;;;5045671;28;20025;-84
2021/08/13 07:33:06;;;;;;;7.40;5.28;;;;;;;;;;5044721;28;20416;-85
2021/08/13 07:35:32;;;;;;;11.32;6.45;;;;;;;;;;5045738;28;20245;-85
2021/08/13 07:37:58;;;;;;;7.30;5.93;;;;;;;;;;5057095;28;20021;-83
2021/08/13 07:40:25;;;;;;;7.97;5.63;;;;;;;;;;5076092;28;20131;-84
2021/08/13 07:42:54;;;;;;;15.23;5.90;;;;;;;;;;5048990;28;20039;-85
2021/08/13 07:45:20;;;;;;;9.02;5.85;;;;;;;;;;5062495;28;20021;-84
2021/08/13 07:47:46;;;;;;;7.03;6.15;;;;;;;;;;5066283;28;20020;-84
2021/08/13 07:50:12;;;;;;;8.05;5.78;;;;;;;;;;5064978;28;20021;-84
2021/08/13 07:52:39;;;;;;;9.05;5.82;;;;;;;;;;5076425;28;20036;-84
2021/08/13 07:55:05;;;;;;;7.90;6.10;;;;;;;;;;5051902;28;20033;-82
2021/08/13 07:57:32;;;;;;;8.35;5.55;;;;;;;;;;5048044;28;20021;-83
2021/08/13 07:59:58;;;;;;;7.18;5.55;;;;;;;;;;5045238;28;20025;-86
2021/08/13 08:02:24;;;;;;;9.02;5.47;;;;;;;;;;5044319;28;20028;-86
2021/08/13 08:04:50;;;;;;;8.90;6.30;;;;;;;;;;5045579;28;20441;-85
2021/08/13 08:07:16;;;;;;;10.48;5.22;;;;;;;;;;5062119;28;20029;-84
2021/08/13 08:09:42;;;;;;;5.18;4.68;;;;;;;;;;5061907;28;20021;-84
2021/08/13 08:12:09;;;;;;;7.45;5.65;;;;;;;;;;5043444;28;20379;-84
2021/08/13 08:14:35;;;;;;;8.85;5.85;;;;;;;;;;5046577;28;20028;-85
2021/08/13 08:17:01;;;;;;;6.82;5.18;;;;;;;;;;5051977;28;20033;-84
2021/08/13 08:19:28;;;;;;;12.38;5.88;;;;;;;;;;5049253;28;20013;-86
2021/08/13 08:21:54;;;;;;;6.80;5.70;;;;;;;;;;5068967;28;20109;-85
2021/08/13 08:24:26;;;;;;;8.10;5.70;;;;;;;;;;5073849;28;20029;-85
2021/08/13 08:26:53;;;;;;;7.00;5.57;;;;;;;;;;5042289;28;20033;-87
2021/08/13 08:29:21;;;;;;;7.10;5.95;;;;;;;;;;5057349;28;20029;-85
2021/08/13 08:31:47;;;;;;;6.88;5.70;;;;;;;;;;5052961;28;20032;-85
2021/08/13 08:34:22;;;;;;;6.93;6.22;;;;;;;;;;5073839;28;20035;-86
2021/08/13 08:36:48;;;;;;;8.95;5.47;;;;;;;;;;5061661;28;20044;-84
2021/08/13 08:39:14;;;;;;;10.35;5.78;;;;;;;;;;5073595;28;20009;-83
2021/08/13 08:41:43;;;;;;;8.07;5.50;;;;;;;;;;5051928;28;20005;-83
2021/08/13 08:44:09;;;;;;;6.43;5.80;;;;;;;;;;5053751;28;20039;-84
2021/08/13 08:46:35;;;;;;;5.80;5.18;;;;;;;;;;5036221;28;20089;-84
2021/08/13 08:49:02;;;;;;;7.85;5.68;;;;;;;;;;5053461;28;20033;-83
2021/08/13 08:51:28;;;;;;;10.05;6.13;;;;;;;;;;5035677;28;20017;-85
2021/08/13 08:53:56;;;;;;;8.85;5.60;;;;;;;;;;5031388;28;20064;-83
2021/08/13 08:56:23;;;;;;;7.22;5.13;;;;;;;;;;5050790;28;20022;-83
2021/08/13 08:58:49;;;;;;;11.95;5.68;;;;;;;;;;5035443;28;20033;-85
2021/08/13 09:01:15;;;;;;;9.93;5.95;;;;;;;;;;5051778;28;20033;-85
2021/08/13 09:03:42;;;;;;;8.90;4.88;;;;;;;;;;5050726;28;20022;-85
2021/08/13 09:06:09;;;;;;;8.50;4.97;;;;;;;;;;5023811;28;20017;-85
2021/08/13 09:08:35;;;;;;;11.35;5.55;;;;;;;;;;5025364;28;20021;-85
2021/08/13 09:11:01;;;;;;;8.50;5.40;;;;;;;;;;5023307;28;20029;-83
2021/08/13 09:13:27;;;;;;;7.20;5.70;;;;;;;;;;5020857;28;20033;-85
2021/08/13 09:15:55;;;;;;;8.40;5.53;;;;;;;;;;5038420;28;20029;-84
2021/08/13 09:18:25;;;;;;;10.10;5.90;;;;;;;;;;5041983;28;20096;-86
2021/08/13 09:20:51;;;;;;;7.00;6.28;;;;;;;;;;5038505;28;20037;-85
2021/08/13 09:23:36;;;;;;;6.53;5.53;;;;;;;;;;5023883;28;20029;-84
2021/08/13 09:26:05;;;;;;;7.85;5.55;;;;;;;;;;5022896;28;20093;-84
2021/08/13 09:28:52;;;;;;;7.30;4.70;;;;;;;;;;5022113;28;20218;-87
2021/08/13 09:31:19;;;;;;;7.25;4.25;;;;;;;;;;5010093;28;20065;-85
2021/08/13 09:33:48;;;;;;;9.57;4.68;;;;;;;;;;5024156;28;20504;-85
2021/08/13 09:36:15;;;;;;;8.90;4.47;;;;;;;;;;5040336;28;20018;-85
2021/08/13 09:38:41;;;;;;;5.10;4.07;;;;;;;;;;5020976;28;20052;-84
2021/08/13 09:41:09;;;;;;;5.28;4.43;;;;;;;;;;5022304;28;20466;-84
2021/08/13 09:43:51;;;;;;;6.82;4.30;;;;;;;;;;5041367;28;20029;-84
2021/08/13 09:46:17;;;;;;;7.05;5.30;;;;;;;;;;5039852;28;20051;-85
2021/08/13 09:48:43;;;;;;;6.68;4.95;;;;;;;;;;5034015;28;20033;-84
2021/08/13 09:51:28;;;;;;;5.43;4.78;;;;;;;;;;5051934;28;20052;-84
2021/08/13 09:54:20;;;;;;;6.13;4.88;;;;;;;;;;5041368;28;20052;-83
2021/08/13 09:56:46;;;;;;;5.20;4.70;;;;;;;;;;5032592;28;20030;-84
2021/08/13 09:59:14;;;;;;;5.60;4.05;;;;;;;;;;5027755;28;20112;-85
2021/08/13 10:01:50;;;;;;;8.60;4.57;;;;;;;;;;5032101;28;20025;-84
2021/08/13 10:04:17;;;;;;;4.82;4.35;;;;;;;;;;5023121;28;20025;-85
2021/08/13 10:06:44;;;;;;;5.88;3.85;;;;;;;;;;5041133;28;20048;-86
2021/08/13 10:09:23;;;;;;;5.78;3.22;;;;;;;;;;5023032;28;20033;-84
2021/08/13 10:11:57;;;;;;;5.80;4.00;;;;;;;;;;5022554;28;20025;-85
2021/08/13 10:14:30;;;;;;;6.35;3.60;;;;;;;;;;5022242;28;20048;-85
2021/08/13 10:17:16;;;;;;;6.25;3.40;;;;;;;;;;5022342;28;20025;-85
2021/08/13 10:19:43;;;;;;;5.30;3.25;;;;;;;;;;5039726;28;20021;-84
2021/08/13 10:22:10;;;;;;;5.40;3.63;;;;;;;;;;5041641;28;20026;-85
2021/08/13 10:24:37;;;;;;;5.03;3.97;;;;;;;;;;5043744;28;20124;-85
2021/08/13 10:27:04;;;;;;;8.20;3.15;;;;;;;;;;5024046;28;20493;-85
2021/08/13 10:29:30;;;;;;;4.10;3.58;;;;;;;;;;5023882;28;20036;-85
2021/08/13 10:31:56;;;;;;;6.25;4.70;;;;;;;;;;5025444;28;20025;-86
2021/08/13 10:34:22;;;;;;;5.10;3.83;;;;;;;;;;5028665;28;20033;-84
2021/08/13 10:36:49;;;;;;;5.68;3.25;;;;;;;;;;5024609;28;20029;-85
2021/08/13 10:39:19;;;;;;;7.07;3.95;;;;;;;;;;5026448;28;20021;-85
2021/08/13 10:44:16;;;;;;;5.80;4.20;;;;;;;;;;5019289;28;20544;-83
2021/08/13 10:46:43;;;;;;;4.88;4.00;;;;;;;;;;5005919;28;20022;-82
2021/08/13 10:49:13;;;;;;;5.72;4.07;;;;;;;;;;5002829;28;20036;-83
2021/08/13 10:51:39;;;;;;;5.60;3.85;;;;;;;;;;5022448;28;20140;-83
2021/08/13 10:54:05;;;;;;;5.97;3.58;;;;;;;;;;5030741;28;20048;-81
2021/08/13 10:56:44;;;;;;;7.88;3.70;;;;;;;;;;5037313;28;20029;-82
2021/08/13 10:59:11;;;;;;;4.20;3.67;;;;;;;;;;5033261;28;20041;-82
2021/08/13 11:01:57;;;;;;;5.95;3.90;;;;;;;;;;5033978;28;20445;-82
2021/08/13 11:04:38;;;;;;;6.05;3.80;;;;;;;;;;5040847;28;20029;-81
2021/08/13 11:07:04;;;;;;;6.82;3.80;;;;;;;;;;5042385;28;20029;-80
2021/08/13 11:09:32;;;;;;;8.13;3.70;;;;;;;;;;5046361;28;20048;-81
2021/08/13 11:11:59;;;;;;;5.20;4.00;;;;;;;;;;5032254;28;20466;-81
2021/08/13 11:14:49;;;;;;;4.57;3.58;;;;;;;;;;5022293;28;20430;-81
2021/08/13 11:17:33;;;;;;;7.22;3.72;;;;;;;;;;5018018;28;20122;-83
2021/08/13 11:19:59;;;;;;;5.60;3.85;;;;;;;;;;5021232;28;20038;-83
2021/08/13 11:22:27;;;;;;;4.50;3.80;;;;;;;;;;5032949;28;20076;-82
2021/08/13 11:24:53;;;;;;;6.28;3.67;;;;;;;;;;5045301;28;20053;-83
2021/08/13 11:27:19;;;;;;;8.27;4.30;;;;;;;;;;5048262;28;20065;-81
2021/08/13 11:29:46;;;;;;;4.90;4.15;;;;;;;;;;5033598;28;20022;-81
2021/08/13 11:32:17;;;;;;;8.05;3.60;;;;;;;;;;5035584;28;20040;-81
2021/08/13 11:34:46;;;;;;;4.93;3.47;;;;;;;;;;5021660;28;20029;-82
2021/08/13 11:37:30;;;;;;;4.20;3.80;;;;;;;;;;5022862;28;20053;-82
2021/08/13 11:40:19;;;;;;;5.13;3.45;;;;;;;;;;5020088;28;20029;-82
2021/08/13 11:42:49;;;;;;;6.88;4.45;;;;;;;;;;5025004;28;20344;-82
2021/08/13 11:45:16;;;;;;;4.78;4.28;;;;;;;;;;5042664;28;20083;-80
2021/08/13 11:47:52;;;;;;;5.30;3.78;;;;;;;;;;5048611;28;20492;-81
2021/08/13 11:50:19;;;;;;;5.63;3.88;;;;;;;;;;5026183;28;20022;-82
2021/08/13 11:52:49;;;;;;;4.90;3.40;;;;;;;;;;5026709;28;20077;-78
2021/08/13 11:55:20;;;;;;;5.88;3.78;;;;;;;;;;5037199;28;20014;-79
2021/08/13 11:57:47;;;;;;;5.10;3.63;;;;;;;;;;5017141;28;20037;-80
2021/08/13 12:00:16;;;;;;;5.10;3.05;;;;;;;;;;5022257;28;20097;-81
2021/08/13 12:02:43;;;;;;;9.43;3.60;;;;;;;;;;5010663;28;20155;-81
2021/08/13 12:05:10;;;;;;;6.03;3.38;;;;;;;;;;5011695;28;20105;-80
2021/08/13 12:07:36;;;;;;;6.30;3.65;;;;;;;;;;5011999;28;20030;-80
2021/08/13 12:10:12;;;;;;;7.50;3.50;;;;;;;;;;5011510;28;20025;-81
2021/08/13 12:12:39;;;;;;;5.30;3.60;;;;;;;;;;5010862;28;20037;-81
2021/08/13 12:15:05;;;;;;;6.28;2.95;;;;;;;;;;5031248;28;20034;-81
2021/08/13 12:17:31;;;;;;;6.28;3.17;;;;;;;;;;5043031;28;20040;-82
2021/08/13 12:19:58;;;;;;;6.93;3.25;;;;;;;;;;5041747;28;20052;-82
2021/08/13 12:22:35;;;;;;;5.80;3.40;;;;;;;;;;5039801;28;20060;-82
2021/08/13 12:25:02;;;;;;;4.93;2.75;;;;;;;;;;5028555;28;20136;-82
2021/08/13 12:27:29;;;;;;;4.80;3.35;;;;;;;;;;5037013;28;20032;-83
2021/08/13 12:29:55;;;;;;;7.07;3.50;;;;;;;;;;5032564;28;20021;-83
2021/08/13 12:32:33;;;;;;;5.13;2.60;;;;;;;;;;5024394;28;20018;-82
2021/08/13 12:34:59;;;;;;;10.63;3.58;;;;;;;;;;5022426;28;20037;-83
2021/08/13 12:37:25;;;;;;;10.52;3.17;;;;;;;;;;5041404;28;20033;-82
2021/08/13 12:39:51;;;;;;;6.35;2.88;;;;;;;;;;5043479;28;20025;-83
2021/08/13 12:42:18;;;;;;;8.32;3.00;;;;;;;;;;5041894;28;20064;-83
2021/08/13 12:44:45;;;;;;;5.22;3.03;;;;;;;;;;5034261;28;20026;-81
2021/08/13 12:47:11;;;;;;;4.35;2.50;;;;;;;;;;5022514;28;20129;-84
2021/08/13 12:49:38;;;;;;;11.18;3.60;;;;;;;;;;5022484;28;20181;-80
2021/08/13 12:52:09;;;;;;;4.40;2.58;;;;;;;;;;5022996;28;20033;-82
2021/08/13 12:54:36;;;;;;;7.95;2.95;;;;;;;;;;5023680;28;20029;-82
2021/08/13 12:57:03;;;;;;;9.68;3.08;;;;;;;;;;5035546;28;20434;-82
2021/08/13 12:59:36;;;;;;;8.93;3.90;;;;;;;;;;5032007;28;20025;-82
2021/08/13 13:02:03;;;;;;;5.47;2.70;;;;;;;;;;5041122;28;20057;-82
2021/08/13 13:04:39;;;;;;;5.45;3.22;;;;;;;;;;5040610;28;20390;-82
2021/08/13 13:07:06;;;;;;;10.25;3.72;;;;;;;;;;5004152;28;20026;-81
2021/08/13 13:09:33;;;;;;;8.48;3.13;;;;;;;;;;5003655;28;20041;-83
2021/08/13 13:12:37;;;;;;;8.27;2.65;;;;;;;;;;5020655;28;20089;-81
2021/08/13 13:15:06;;;;;;;6.45;2.83;;;;;;;;;;4942910;29;20039;-81
2021/08/13 13:17:32;;;;;;;8.80;2.88;;;;;;;;;;4960240;29;20023;-82
2021/08/13 13:20:08;;;;;;;7.63;2.72;;;;;;;;;;4999934;28;20072;-83
2021/08/13 13:22:34;;;;;;;5.55;3.10;;;;;;;;;;5023828;28;20056;-83
2021/08/13 13:25:13;;;;;;;10.70;3.13;;;;;;;;;;5051297;28;20116;-80
2021/08/13 13:27:56;;;;;;;11.15;3.78;;;;;;;;;;5057954;28;20030;-79
2021/08/13 13:30:31;;;;;;;9.00;3.55;;;;;;;;;;5047386;28;20014;-79
2021/08/13 13:33:01;;;;;;;13.20;3.17;;;;;;;;;;5038116;28;20033;-80
2021/08/13 13:35:28;;;;;;;7.40;3.03;;;;;;;;;;5038766;28;20014;-80
2021/08/13 13:37:54;;;;;;;10.68;3.33;;;;;;;;;;5039597;28;20033;-81
2021/08/13 13:40:20;;;;;;;15.95;3.50;;;;;;;;;;5041185;28;20013;-80
2021/08/13 13:42:46;;;;;;;11.20;3.70;;;;;;;;;;5058101;28;20083;-80
2021/08/13 13:45:13;;;;;;;7.53;3.47;;;;;;;;;;5058650;28;20037;-79
2021/08/13 13:47:39;;;;;;;8.55;3.60;;;;;;;;;;5027926;28;20045;-78
2021/08/13 13:50:06;;;;;;;9.75;3.20;;;;;;;;;;5020435;28;20018;-80
2021/08/13 13:52:32;;;;;;;9.50;3.03;;;;;;;;;;5019347;28;20030;-81
2021/08/13 13:54:58;;;;;;;8.52;3.20;;;;;;;;;;5036551;28;20026;-81
2021/08/13 13:57:24;;;;;;;8.05;3.75;;;;;;;;;;5044688;28;20037;-79
2021/08/13 13:59:50;;;;;;;11.75;3.55;;;;;;;;;;5045589;28;20056;-83
2021/08/13 14:02:16;;;;;;;9.40;3.30;;;;;;;;;;5036184;28;20030;-80
2021/08/13 14:04:42;;;;;;;8.00;3.55;;;;;;;;;;5013115;28;20152;-82
2021/08/13 14:07:09;;;;;;;11.27;4.32;;;;;;;;;;5029115;28;20121;-82
2021/08/13 14:09:35;;;;;;;12.68;4.30;;;;;;;;;;5011848;28;20060;-80
2021/08/13 14:12:01;;;;;;;12.75;4.15;;;;;;;;;;5033416;28;20086;-80
2021/08/13 14:14:27;;;;;;;13.85;3.80;;;;;;;;;;5034847;28;20025;-83
2021/08/13 14:16:53;;;;;;;12.23;3.58;;;;;;;;;;5028511;28;20026;-82
2021/08/13 14:19:19;;;;;;;8.52;4.38;;;;;;;;;;5028903;28;20044;-83
2021/08/13 14:21:48;;;;;;;10.55;3.30;;;;;;;;;;5045072;28;20053;-82
2021/08/13 14:24:14;;;;;;;12.07;4.38;;;;;;;;;;5044832;28;20112;-82
2021/08/13 14:26:40;;;;;;;9.88;3.80;;;;;;;;;;5049590;28;20487;-82
2021/08/13 14:29:06;;;;;;;11.60;3.10;;;;;;;;;;5044218;28;20057;-83
2021/08/13 14:31:32;;;;;;;12.25;3.97;;;;;;;;;;5010653;28;20092;-81
2021/08/13 14:33:58;;;;;;;12.43;3.83;;;;;;;;;;5024768;28;20425;-83
2021/08/13 14:36:28;;;;;;;11.85;3.88;;;;;;;;;;5022436;28;20054;-83
2021/08/13 14:38:54;;;;;;;15.60;3.88;;;;;;;;;;5023434;28;20116;-81
2021/08/13 14:41:20;;;;;;;8.63;3.80;;;;;;;;;;5022815;28;20042;-80
2021/08/13 14:43:46;;;;;;;14.23;3.53;;;;;;;;;;5023301;28;20037;-81
2021/08/13 14:46:12;;;;;;;9.40;3.70;;;;;;;;;;5036435;28;20382;-81
2021/08/13 14:48:38;;;;;;;10.27;3.35;;;;;;;;;;5048064;28;20041;-82